This is the latest recevied weather packets stored in our database for station/object KB9HUO. If no packets are shown the sender has not sent any weather packets the latest 10 day(s).
| Time | Temp. | Humidity | Pressure | Rain* | Wind** | Luminosity | Snow |
|---|---|---|---|---|---|---|---|
| 1777663202 | 16.11° C | 43% | 1016.9 hPa | 0 mm | - | 115 W/m² | - |
| 1777662899 | 16.11° C | 43% | 1016.9 hPa | 0 mm | - | 397 W/m² | - |
| 1777662596 | 15.56° C | 40% | 1016.7 hPa | 0 mm | - | 740 W/m² | - |
| 1777662291 | 16.11° C | 41% | 1016.6 hPa | 0 mm | - | 722 W/m² | - |
| 1777661987 | 16.11° C | 43% | 1016.5 hPa | 0 mm | - | 207 W/m² | - |
| 1777661683 | 15.56° C | 40% | 1016.7 hPa | 0 mm | - | 300 W/m² | - |
| 1777661379 | 16.11° C | 40% | 1016.8 hPa | 0 mm | - | 211 W/m² | - |
| 1777661076 | 16.11° C | 40% | 1016.6 hPa | 0 mm | - | 807 W/m² | - |
| 1777660770 | 16.11° C | 41% | 1016.7 hPa | 0 mm | - | 319 W/m² | - |
| 1777660468 | 15.56° C | 40% | 1016.8 hPa | 0 mm | - | 325 W/m² | - |
| 1777660164 | 15° C | 48% | 1016.5 hPa | 0 mm | - | 705 W/m² | - |
| 1777659861 | 14.44° C | 45% | 1016.5 hPa | 0 mm | - | 819 W/m² | - |
| 1777659558 | 14.44° C | 46% | 1016.5 hPa | 0 mm | - | 818 W/m² | - |
| 1777659255 | 15.56° C | 46% | 1016.8 hPa | 0 mm | - | 122 W/m² | - |
| 1777658952 | 16.11° C | 47% | 1016.8 hPa | 0 mm | - | 681 W/m² | - |
| 1777658649 | 15.56° C | 41% | 1016.8 hPa | 0 mm | - | 893 W/m² | - |
| 1777658345 | 15.56° C | 45% | 1016.8 hPa | 0 mm | - | 224 W/m² | - |
| 1777658042 | 15° C | 45% | 1016.7 hPa | 0 mm | - | 880 W/m² | - |
| 1777657739 | 13.89° C | 48% | 1016.5 hPa | 0 mm | - | 872 W/m² | - |
| 1777657436 | 14.44° C | 50% | 1016.7 hPa | 0 mm | - | 189 W/m² | - |
| 1777657134 | 15° C | 48% | 1016.5 hPa | 0 mm | - | 122 W/m² | - |
| 1777656832 | 14.44° C | 51% | 1016.7 hPa | 0 mm | - | 913 W/m² | - |
| 1777656527 | 14.44° C | 52% | 1016.7 hPa | 0 mm | - | 205 W/m² | - |
| 1777656222 | 13.33° C | 52% | 1016.7 hPa | 0 mm | - | 842 W/m² | - |
| 1777655918 | 13.89° C | 50% | 1016.5 hPa | 0 mm | - | 141 W/m² | - |
* Rain latest hour (hover to see other rain measurements)
** Current wind speed in m/s (hover to see current wind gust speed)